sensor_id;sensor_type;location;lat;lon;timestamp;pressure;altitude;pressure_sealevel;temperature;humidity
63090;BME280;49174;43.198;27.824;2023-04-08T00:01:17;102073.94;;;6.48;92.30
63090;BME280;49174;43.198;27.824;2023-04-08T00:03:42;102079.19;;;6.50;92.02
63090;BME280;49174;43.198;27.824;2023-04-08T00:06:08;102069.16;;;6.52;92.21
63090;BME280;49174;43.198;27.824;2023-04-08T00:08:33;102075.94;;;6.56;91.82
63090;BME280;49174;43.198;27.824;2023-04-08T00:10:59;102070.00;;;6.62;92.13
63090;BME280;49174;43.198;27.824;2023-04-08T00:13:24;102069.22;;;6.71;91.22
63090;BME280;49174;43.198;27.824;2023-04-08T00:15:50;102073.00;;;6.79;90.75
63090;BME280;49174;43.198;27.824;2023-04-08T00:18:16;102071.31;;;6.78;90.22
63090;BME280;49174;43.198;27.824;2023-04-08T00:20:42;102074.81;;;6.68;90.08
63090;BME280;49174;43.198;27.824;2023-04-08T00:23:08;102078.34;;;6.59;90.48
63090;BME280;49174;43.198;27.824;2023-04-08T00:25:36;102079.34;;;6.58;89.44
63090;BME280;49174;43.198;27.824;2023-04-08T00:28:01;102079.63;;;6.55;88.82
63090;BME280;49174;43.198;27.824;2023-04-08T00:30:27;102078.06;;;6.53;89.20
63090;BME280;49174;43.198;27.824;2023-04-08T00:32:53;102073.94;;;6.48;89.40
63090;BME280;49174;43.198;27.824;2023-04-08T00:35:19;102075.34;;;6.43;89.58
63090;BME280;49174;43.198;27.824;2023-04-08T00:37:44;102077.19;;;6.42;89.44
63090;BME280;49174;43.198;27.824;2023-04-08T00:40:10;102084.38;;;6.42;89.81
63090;BME280;49174;43.198;27.824;2023-04-08T00:42:35;102074.50;;;6.42;90.06
63090;BME280;49174;43.198;27.824;2023-04-08T00:45:01;102077.91;;;6.44;90.36
63090;BME280;49174;43.198;27.824;2023-04-08T00:47:27;102070.25;;;6.40;90.79
63090;BME280;49174;43.198;27.824;2023-04-08T00:49:52;102076.50;;;6.50;91.57
63090;BME280;49174;43.198;27.824;2023-04-08T00:52:18;102072.53;;;6.54;92.12
63090;BME280;49174;43.198;27.824;2023-04-08T00:54:43;102071.28;;;6.58;91.32
63090;BME280;49174;43.198;27.824;2023-04-08T00:57:09;102068.63;;;6.58;91.91
63090;BME280;49174;43.198;27.824;2023-04-08T00:59:34;102067.72;;;6.48;92.11
63090;BME280;49174;43.198;27.824;2023-04-08T01:02:18;102068.28;;;6.52;92.87
63090;BME280;49174;43.198;27.824;2023-04-08T01:07:26;102071.44;;;6.66;93.28
63090;BME280;49174;43.198;27.824;2023-04-08T01:09:54;102063.41;;;6.76;92.28
63090;BME280;49174;43.198;27.824;2023-04-08T01:12:25;102073.56;;;6.72;92.07
63090;BME280;49174;43.198;27.824;2023-04-08T01:14:58;102074.56;;;6.71;92.93
63090;BME280;49174;43.198;27.824;2023-04-08T01:17:25;102070.88;;;6.72;92.77
63090;BME280;49174;43.198;27.824;2023-04-08T01:19:53;102072.72;;;6.72;92.60
63090;BME280;49174;43.198;27.824;2023-04-08T01:25:15;102071.44;;;6.66;91.80
63090;BME280;49174;43.198;27.824;2023-04-08T01:27:42;102067.34;;;6.62;92.54
63090;BME280;49174;43.198;27.824;2023-04-08T01:30:08;102071.13;;;6.50;92.07
63090;BME280;49174;43.198;27.824;2023-04-08T01:32:34;102062.09;;;6.41;93.13
63090;BME280;49174;43.198;27.824;2023-04-08T01:35:02;102065.16;;;6.37;92.77
63090;BME280;49174;43.198;27.824;2023-04-08T01:37:29;102065.03;;;6.38;93.44
63090;BME280;49174;43.198;27.824;2023-04-08T01:39:55;102067.34;;;6.53;93.22
63090;BME280;49174;43.198;27.824;2023-04-08T01:42:25;102067.19;;;6.54;93.20
63090;BME280;49174;43.198;27.824;2023-04-08T01:44:55;102060.97;;;6.44;93.97
63090;BME280;49174;43.198;27.824;2023-04-08T01:47:22;102065.03;;;6.38;94.57
63090;BME280;49174;43.198;27.824;2023-04-08T01:49:54;102060.81;;;6.36;93.33
63090;BME280;49174;43.198;27.824;2023-04-08T01:52:22;102056.41;;;6.35;93.54
63090;BME280;49174;43.198;27.824;2023-04-08T01:54:49;102064.34;;;6.46;93.92
63090;BME280;49174;43.198;27.824;2023-04-08T01:57:25;102055.03;;;6.50;93.31
63090;BME280;49174;43.198;27.824;2023-04-08T01:59:52;102057.28;;;6.45;93.58
63090;BME280;49174;43.198;27.824;2023-04-08T02:02:21;102055.56;;;6.34;93.63
63090;BME280;49174;43.198;27.824;2023-04-08T02:04:48;102060.91;;;6.24;94.63
63090;BME280;49174;43.198;27.824;2023-04-08T02:07:14;102061.03;;;6.23;94.31
63090;BME280;49174;43.198;27.824;2023-04-08T02:09:40;102059.91;;;6.25;93.76
63090;BME280;49174;43.198;27.824;2023-04-08T02:12:06;102075.28;;;6.23;94.62
63090;BME280;49174;43.198;27.824;2023-04-08T02:14:32;102076.81;;;6.16;95.12
63090;BME280;49174;43.198;27.824;2023-04-08T02:19:33;102080.44;;;6.06;96.46
63090;BME280;49174;43.198;27.824;2023-04-08T02:22:11;102082.97;;;6.07;95.88
63090;BME280;49174;43.198;27.824;2023-04-08T02:24:41;102086.25;;;6.11;95.92
63090;BME280;49174;43.198;27.824;2023-04-08T02:27:09;102093.56;;;6.09;96.48
63090;BME280;49174;43.198;27.824;2023-04-08T02:29:35;102095.13;;;6.11;95.75
63090;BME280;49174;43.198;27.824;2023-04-08T02:32:03;102094.97;;;6.13;95.68
63090;BME280;49174;43.198;27.824;2023-04-08T02:34:29;102088.66;;;6.14;96.76
63090;BME280;49174;43.198;27.824;2023-04-08T02:36:55;102085.97;;;6.14;97.20
63090;BME280;49174;43.198;27.824;2023-04-08T02:39:21;102082.44;;;6.13;95.88
63090;BME280;49174;43.198;27.824;2023-04-08T02:41:54;102087.09;;;6.11;95.90
63090;BME280;49174;43.198;27.824;2023-04-08T02:44:20;102087.03;;;6.01;95.46
63090;BME280;49174;43.198;27.824;2023-04-08T02:46:45;102095.75;;;5.94;95.84
63090;BME280;49174;43.198;27.824;2023-04-08T02:49:11;102084.41;;;5.90;95.34
63090;BME280;49174;43.198;27.824;2023-04-08T02:51:36;102101.97;;;5.94;94.50
63090;BME280;49174;43.198;27.824;2023-04-08T02:54:01;102109.47;;;5.79;93.56
63090;BME280;49174;43.198;27.824;2023-04-08T02:56:27;102111.75;;;5.63;93.74
63090;BME280;49174;43.198;27.824;2023-04-08T02:58:53;102106.84;;;5.47;94.55
63090;BME280;49174;43.198;27.824;2023-04-08T03:01:19;102107.44;;;5.30;94.74
63090;BME280;49174;43.198;27.824;2023-04-08T03:03:45;102102.59;;;5.24;96.28
63090;BME280;49174;43.198;27.824;2023-04-08T03:06:10;102099.50;;;5.07;97.18
63090;BME280;49174;43.198;27.824;2023-04-08T03:08:36;102105.00;;;4.95;97.15
63090;BME280;49174;43.198;27.824;2023-04-08T03:11:01;102111.50;;;4.81;97.66
63090;BME280;49174;43.198;27.824;2023-04-08T03:13:27;102103.63;;;4.68;97.00
63090;BME280;49174;43.198;27.824;2023-04-08T03:15:54;102103.63;;;4.57;98.27
63090;BME280;49174;43.198;27.824;2023-04-08T03:18:19;102108.13;;;4.56;97.75
63090;BME280;49174;43.198;27.824;2023-04-08T03:20:45;102103.88;;;4.54;97.42
63090;BME280;49174;43.198;27.824;2023-04-08T03:23:11;102108.06;;;4.46;97.24
63090;BME280;49174;43.198;27.824;2023-04-08T03:25:36;102106.59;;;4.42;97.05
63090;BME280;49174;43.198;27.824;2023-04-08T03:28:02;102107.56;;;4.30;96.73
63090;BME280;49174;43.198;27.824;2023-04-08T03:30:28;102112.78;;;4.20;97.63
63090;BME280;49174;43.198;27.824;2023-04-08T03:32:54;102119.59;;;4.13;99.42
63090;BME280;49174;43.198;27.824;2023-04-08T03:35:20;102119.22;;;4.07;99.95
63090;BME280;49174;43.198;27.824;2023-04-08T03:37:45;102117.78;;;4.02;99.67
63090;BME280;49174;43.198;27.824;2023-04-08T03:40:11;102120.19;;;4.17;99.58
63090;BME280;49174;43.198;27.824;2023-04-08T03:42:37;102130.03;;;4.16;98.32
63090;BME280;49174;43.198;27.824;2023-04-08T03:45:03;102127.88;;;4.10;97.89
63090;BME280;49174;43.198;27.824;2023-04-08T03:47:29;102131.47;;;4.09;97.80
63090;BME280;49174;43.198;27.824;2023-04-08T03:49:55;102137.22;;;4.05;97.42
63090;BME280;49174;43.198;27.824;2023-04-08T03:52:20;102137.31;;;4.03;97.66
63090;BME280;49174;43.198;27.824;2023-04-08T03:54:46;102141.81;;;4.02;97.99
63090;BME280;49174;43.198;27.824;2023-04-08T03:57:11;102146.41;;;4.00;97.26
63090;BME280;49174;43.198;27.824;2023-04-08T03:59:37;102144.47;;;3.91;98.03
63090;BME280;49174;43.198;27.824;2023-04-08T04:02:05;102144.94;;;3.85;99.38
63090;BME280;49174;43.198;27.824;2023-04-08T04:04:30;102149.56;;;3.83;99.31
63090;BME280;49174;43.198;27.824;2023-04-08T04:06:56;102147.13;;;3.80;99.77
63090;BME280;49174;43.198;27.824;2023-04-08T04:09:21;102147.34;;;3.77;100.00
63090;BME280;49174;43.198;27.824;2023-04-08T04:11:47;102150.25;;;3.74;100.00
63090;BME280;49174;43.198;27.824;2023-04-08T04:14:12;102156.09;;;3.79;100.00
63090;BME280;49174;43.198;27.824;2023-04-08T04:16:38;102157.31;;;3.86;100.00
63090;BME280;49174;43.198;27.824;2023-04-08T04:19:03;102157.81;;;3.91;100.00
63090;BME280;49174;43.198;27.824;2023-04-08T04:21:29;102161.84;;;3.97;100.00
63090;BME280;49174;43.198;27.824;2023-04-08T04:23:55;102159.06;;;4.10;100.00
63090;BME280;49174;43.198;27.824;2023-04-08T04:26:21;102155.31;;;4.23;100.00
63090;BME280;49174;43.198;27.824;2023-04-08T04:28:46;102155.19;;;4.36;100.00
63090;BME280;49174;43.198;27.824;2023-04-08T04:31:22;102155.56;;;4.54;100.00
63090;BME280;49174;43.198;27.824;2023-04-08T04:33:50;102151.88;;;4.66;100.00
63090;BME280;49174;43.198;27.824;2023-04-08T04:36:17;102153.28;;;4.82;100.00
63090;BME280;49174;43.198;27.824;2023-04-08T04:38:44;102162.03;;;4.95;100.00
63090;BME280;49174;43.198;27.824;2023-04-08T04:41:10;102156.53;;;5.08;100.00
63090;BME280;49174;43.198;27.824;2023-04-08T04:43:36;102153.81;;;5.19;100.00
63090;BME280;49174;43.198;27.824;2023-04-08T04:46:01;102155.09;;;5.36;100.00
63090;BME280;49174;43.198;27.824;2023-04-08T04:48:34;102162.44;;;5.55;100.00
63090;BME280;49174;43.198;27.824;2023-04-08T04:51:00;102151.19;;;5.61;100.00
63090;BME280;49174;43.198;27.824;2023-04-08T04:53:27;102162.38;;;5.66;100.00
63090;BME280;49174;43.198;27.824;2023-04-08T04:55:53;102166.09;;;5.75;100.00
63090;BME280;49174;43.198;27.824;2023-04-08T04:58:18;102170.09;;;5.80;98.58
63090;BME280;49174;43.198;27.824;2023-04-08T05:00:44;102176.88;;;5.85;98.38
63090;BME280;49174;43.198;27.824;2023-04-08T05:03:12;102175.88;;;5.97;97.26
63090;BME280;49174;43.198;27.824;2023-04-08T05:05:37;102175.34;;;6.03;96.41
63090;BME280;49174;43.198;27.824;2023-04-08T05:08:03;102174.78;;;6.09;97.48
63090;BME280;49174;43.198;27.824;2023-04-08T05:10:29;102175.03;;;6.27;97.11
63090;BME280;49174;43.198;27.824;2023-04-08T05:12:54;102180.31;;;6.38;96.54
63090;BME280;49174;43.198;27.824;2023-04-08T05:15:20;102180.63;;;6.45;95.53
63090;BME280;49174;43.198;27.824;2023-04-08T05:17:46;102170.50;;;6.58;93.79
63090;BME280;49174;43.198;27.824;2023-04-08T05:20:11;102166.72;;;6.61;92.90
63090;BME280;49174;43.198;27.824;2023-04-08T05:22:37;102172.03;;;6.51;92.62
63090;BME280;49174;43.198;27.824;2023-04-08T05:25:03;102175.22;;;6.66;94.00
63090;BME280;49174;43.198;27.824;2023-04-08T05:27:29;102171.88;;;6.83;93.10
63090;BME280;49174;43.198;27.824;2023-04-08T05:29:55;102172.31;;;6.98;93.02
63090;BME280;49174;43.198;27.824;2023-04-08T05:32:21;102174.03;;;7.09;91.41
63090;BME280;49174;43.198;27.824;2023-04-08T05:34:47;102174.47;;;7.14;90.02
63090;BME280;49174;43.198;27.824;2023-04-08T05:37:12;102174.19;;;7.27;90.68
63090;BME280;49174;43.198;27.824;2023-04-08T05:39:38;102178.84;;;7.34;89.18
63090;BME280;49174;43.198;27.824;2023-04-08T05:42:03;102174.34;;;7.54;89.18
63090;BME280;49174;43.198;27.824;2023-04-08T05:44:29;102172.75;;;7.71;88.45
63090;BME280;49174;43.198;27.824;2023-04-08T06:05:58;102169.88;;;8.86;87.91
63090;BME280;49174;43.198;27.824;2023-04-08T06:08:24;102165.41;;;8.95;87.52
63090;BME280;49174;43.198;27.824;2023-04-08T06:10:50;102164.59;;;8.94;86.79
63090;BME280;49174;43.198;27.824;2023-04-08T06:13:16;102167.69;;;9.17;87.66
63090;BME280;49174;43.198;27.824;2023-04-08T06:15:42;102169.44;;;9.27;85.50
63090;BME280;49174;43.198;27.824;2023-04-08T06:18:08;102167.16;;;9.14;87.58
63090;BME280;49174;43.198;27.824;2023-04-08T06:20:34;102170.13;;;9.11;88.07
63090;BME280;49174;43.198;27.824;2023-04-08T06:23:00;102172.53;;;9.32;87.33
63090;BME280;49174;43.198;27.824;2023-04-08T06:25:26;102171.91;;;9.38;87.41
63090;BME280;49174;43.198;27.824;2023-04-08T06:27:51;102171.59;;;9.59;88.11
63090;BME280;49174;43.198;27.824;2023-04-08T06:30:17;102172.41;;;9.77;87.76
63090;BME280;49174;43.198;27.824;2023-04-08T06:35:24;102162.81;;;10.01;85.26
63090;BME280;49174;43.198;27.824;2023-04-08T07:28:31;102182.19;;;12.55;72.90
63090;BME280;49174;43.198;27.824;2023-04-08T07:31:18;102172.50;;;12.68;72.49
63090;BME280;49174;43.198;27.824;2023-04-08T07:47:57;102181.09;;;13.34;70.00
63090;BME280;49174;43.198;27.824;2023-04-08T07:50:23;102180.78;;;13.37;69.83
63090;BME280;49174;43.198;27.824;2023-04-08T07:52:48;102190.94;;;13.35;69.39
63090;BME280;49174;43.198;27.824;2023-04-08T07:55:14;102181.78;;;13.36;69.56
63090;BME280;49174;43.198;27.824;2023-04-08T07:57:40;102186.16;;;13.46;71.55
63090;BME280;49174;43.198;27.824;2023-04-08T08:02:47;102181.66;;;13.53;69.56
63090;BME280;49174;43.198;27.824;2023-04-08T08:05:13;102190.34;;;13.48;70.19
63090;BME280;49174;43.198;27.824;2023-04-08T08:07:38;102193.53;;;13.52;69.94
63090;BME280;49174;43.198;27.824;2023-04-08T08:10:04;102190.06;;;13.43;69.33
63090;BME280;49174;43.198;27.824;2023-04-08T08:12:30;102192.69;;;13.28;69.95
63090;BME280;49174;43.198;27.824;2023-04-08T08:14:56;102193.88;;;13.26;69.93
63090;BME280;49174;43.198;27.824;2023-04-08T08:17:23;102194.03;;;13.24;70.67
63090;BME280;49174;43.198;27.824;2023-04-08T08:19:49;102198.84;;;13.14;69.16
63090;BME280;49174;43.198;27.824;2023-04-08T08:38:27;102201.13;;;13.79;67.70
63090;BME280;49174;43.198;27.824;2023-04-08T09:48:31;102212.19;;;14.90;61.01
63090;BME280;49174;43.198;27.824;2023-04-08T10:44:03;102187.81;;;15.76;61.01
63090;BME280;49174;43.198;27.824;2023-04-08T11:53:43;102154.53;;;16.30;60.42
63090;BME280;49174;43.198;27.824;2023-04-08T12:32:55;102132.81;;;15.59;60.19
63090;BME280;49174;43.198;27.824;2023-04-08T12:35:22;102131.47;;;15.70;59.07
63090;BME280;49174;43.198;27.824;2023-04-08T12:37:47;102119.47;;;15.85;59.13
63090;BME280;49174;43.198;27.824;2023-04-08T12:40:13;102112.22;;;15.50;60.08
63090;BME280;49174;43.198;27.824;2023-04-08T12:42:39;102109.19;;;14.95;62.55
63090;BME280;49174;43.198;27.824;2023-04-08T12:45:05;102120.16;;;14.87;61.68
63090;BME280;49174;43.198;27.824;2023-04-08T12:50:15;102111.78;;;15.25;61.70
63090;BME280;49174;43.198;27.824;2023-04-08T12:52:41;102111.53;;;15.41;61.37
63090;BME280;49174;43.198;27.824;2023-04-08T12:55:07;102110.53;;;15.49;62.43
63090;BME280;49174;43.198;27.824;2023-04-08T12:57:33;102113.94;;;15.79;59.90
63090;BME280;49174;43.198;27.824;2023-04-08T13:02:41;102115.66;;;15.80;60.68
63090;BME280;49174;43.198;27.824;2023-04-08T13:05:09;102099.91;;;15.75;61.95
63090;BME280;49174;43.198;27.824;2023-04-08T13:07:35;102105.34;;;16.03;61.57
63090;BME280;49174;43.198;27.824;2023-04-08T13:10:02;102102.06;;;16.21;60.10
63090;BME280;49174;43.198;27.824;2023-04-08T13:12:29;102095.75;;;16.14;59.77
63090;BME280;49174;43.198;27.824;2023-04-08T13:14:55;102101.97;;;16.01;60.80
63090;BME280;49174;43.198;27.824;2023-04-08T13:17:20;102105.50;;;15.46;60.85
63090;BME280;49174;43.198;27.824;2023-04-08T14:01:54;102116.94;;;14.62;64.93
63090;BME280;49174;43.198;27.824;2023-04-08T14:04:21;102113.25;;;13.66;69.26
63090;BME280;49174;43.198;27.824;2023-04-08T14:06:48;102107.09;;;13.86;70.52
63090;BME280;49174;43.198;27.824;2023-04-08T14:09:16;102099.47;;;14.05;68.38
63090;BME280;49174;43.198;27.824;2023-04-08T14:11:42;102098.03;;;13.94;67.94
63090;BME280;49174;43.198;27.824;2023-04-08T14:14:07;102102.56;;;14.02;67.48
63090;BME280;49174;43.198;27.824;2023-04-08T14:16:33;102092.69;;;13.86;67.60
63090;BME280;49174;43.198;27.824;2023-04-08T14:19:00;102094.00;;;13.75;69.81
63090;BME280;49174;43.198;27.824;2023-04-08T14:21:25;102098.41;;;13.91;69.01
63090;BME280;49174;43.198;27.824;2023-04-08T14:23:52;102089.03;;;13.64;67.82
63090;BME280;49174;43.198;27.824;2023-04-08T14:26:18;102093.00;;;13.76;69.66
63090;BME280;49174;43.198;27.824;2023-04-08T14:28:44;102089.31;;;13.84;67.73
63090;BME280;49174;43.198;27.824;2023-04-08T14:31:12;102089.22;;;13.62;69.50
63090;BME280;49174;43.198;27.824;2023-04-08T14:33:38;102098.06;;;13.56;69.91
63090;BME280;49174;43.198;27.824;2023-04-08T14:36:04;102102.16;;;12.83;70.68
63090;BME280;49174;43.198;27.824;2023-04-08T14:38:30;102090.47;;;12.60;72.96
63090;BME280;49174;43.198;27.824;2023-04-08T14:40:56;102084.06;;;12.52;75.10
63090;BME280;49174;43.198;27.824;2023-04-08T14:43:22;102091.84;;;12.47;74.14
63090;BME280;49174;43.198;27.824;2023-04-08T14:45:50;102085.56;;;12.16;72.48
63090;BME280;49174;43.198;27.824;2023-04-08T14:48:17;102087.66;;;11.89;76.01
63090;BME280;49174;43.198;27.824;2023-04-08T14:50:43;102096.41;;;12.07;73.78
63090;BME280;49174;43.198;27.824;2023-04-08T14:53:09;102095.13;;;11.71;77.12
63090;BME280;49174;43.198;27.824;2023-04-08T14:55:34;102098.28;;;12.07;76.39
63090;BME280;49174;43.198;27.824;2023-04-08T14:58:00;102098.03;;;12.25;74.75
63090;BME280;49174;43.198;27.824;2023-04-08T15:00:25;102092.00;;;12.15;75.39
63090;BME280;49174;43.198;27.824;2023-04-08T15:02:51;102092.56;;;11.77;75.73
63090;BME280;49174;43.198;27.824;2023-04-08T15:05:16;102091.38;;;11.72;77.21
63090;BME280;49174;43.198;27.824;2023-04-08T15:07:42;102092.22;;;11.97;75.81
63090;BME280;49174;43.198;27.824;2023-04-08T15:10:08;102092.75;;;11.68;77.28
63090;BME280;49174;43.198;27.824;2023-04-08T15:12:34;102084.63;;;11.84;77.30
63090;BME280;49174;43.198;27.824;2023-04-08T15:15:01;102086.47;;;11.83;77.72
63090;BME280;49174;43.198;27.824;2023-04-08T15:17:27;102083.13;;;11.73;78.93
63090;BME280;49174;43.198;27.824;2023-04-08T15:19:53;102092.06;;;11.74;78.86
63090;BME280;49174;43.198;27.824;2023-04-08T15:27:35;102081.94;;;11.59;78.51
63090;BME280;49174;43.198;27.824;2023-04-08T15:32:51;102092.06;;;11.82;75.68
63090;BME280;49174;43.198;27.824;2023-04-08T15:37:59;102091.38;;;11.80;76.21
63090;BME280;49174;43.198;27.824;2023-04-08T15:40:25;102098.66;;;11.30;78.26
63090;BME280;49174;43.198;27.824;2023-04-08T15:42:51;102101.56;;;11.37;78.16
63090;BME280;49174;43.198;27.824;2023-04-08T15:50:36;102105.84;;;10.64;81.31
63090;BME280;49174;43.198;27.824;2023-04-08T15:53:03;102103.00;;;10.82;80.66
63090;BME280;49174;43.198;27.824;2023-04-08T15:55:29;102114.81;;;10.73;80.57
63090;BME280;49174;43.198;27.824;2023-04-08T15:57:54;102110.97;;;10.84;80.95
63090;BME280;49174;43.198;27.824;2023-04-08T16:00:21;102109.03;;;10.68;81.10
63090;BME280;49174;43.198;27.824;2023-04-08T16:02:50;102115.66;;;10.73;81.72
63090;BME280;49174;43.198;27.824;2023-04-08T16:08:04;102126.06;;;10.60;82.63
63090;BME280;49174;43.198;27.824;2023-04-08T16:10:30;102118.75;;;10.52;82.96
63090;BME280;49174;43.198;27.824;2023-04-08T16:12:55;102122.31;;;10.45;83.76
63090;BME280;49174;43.198;27.824;2023-04-08T16:15:21;102120.91;;;10.41;82.76
63090;BME280;49174;43.198;27.824;2023-04-08T16:17:50;102121.91;;;10.32;83.72
63090;BME280;49174;43.198;27.824;2023-04-08T16:20:18;102131.72;;;10.15;85.23
63090;BME280;49174;43.198;27.824;2023-04-08T16:22:43;102138.38;;;10.02;86.23
63090;BME280;49174;43.198;27.824;2023-04-08T16:25:09;102137.22;;;10.05;87.32
63090;BME280;49174;43.198;27.824;2023-04-08T16:27:34;102136.63;;;9.93;86.35
63090;BME280;49174;43.198;27.824;2023-04-08T16:30:02;102136.63;;;9.67;87.56
63090;BME280;49174;43.198;27.824;2023-04-08T16:32:28;102134.78;;;9.68;87.43
63090;BME280;49174;43.198;27.824;2023-04-08T16:34:55;102137.78;;;9.47;88.30
63090;BME280;49174;43.198;27.824;2023-04-08T16:37:21;102141.22;;;9.31;89.82
63090;BME280;49174;43.198;27.824;2023-04-08T16:39:46;102140.50;;;9.29;89.84
63090;BME280;49174;43.198;27.824;2023-04-08T16:42:12;102152.22;;;9.20;89.98
63090;BME280;49174;43.198;27.824;2023-04-08T16:44:38;102143.75;;;9.14;90.59
63090;BME280;49174;43.198;27.824;2023-04-08T16:47:03;102147.59;;;9.12;90.82
63090;BME280;49174;43.198;27.824;2023-04-08T16:49:29;102146.19;;;9.08;90.63
63090;BME280;49174;43.198;27.824;2023-04-08T16:51:55;102152.09;;;8.93;92.01
63090;BME280;49174;43.198;27.824;2023-04-08T16:54:20;102150.41;;;8.92;92.70
63090;BME280;49174;43.198;27.824;2023-04-08T16:56:46;102154.69;;;8.85;93.09
63090;BME280;49174;43.198;27.824;2023-04-08T16:59:12;102150.16;;;8.86;93.11
63090;BME280;49174;43.198;27.824;2023-04-08T17:01:37;102153.00;;;8.84;92.99
63090;BME280;49174;43.198;27.824;2023-04-08T17:06:44;102157.00;;;8.80;93.38
63090;BME280;49174;43.198;27.824;2023-04-08T17:09:09;102156.75;;;8.73;93.93
63090;BME280;49174;43.198;27.824;2023-04-08T17:11:38;102154.22;;;8.72;93.58
63090;BME280;49174;43.198;27.824;2023-04-08T17:14:04;102151.44;;;8.64;94.29
63090;BME280;49174;43.198;27.824;2023-04-08T17:16:30;102152.72;;;8.60;93.95
63090;BME280;49174;43.198;27.824;2023-04-08T17:18:56;102152.78;;;8.50;95.13
63090;BME280;49174;43.198;27.824;2023-04-08T17:21:21;102159.31;;;8.47;95.70
63090;BME280;49174;43.198;27.824;2023-04-08T17:23:47;102164.38;;;8.50;94.94
63090;BME280;49174;43.198;27.824;2023-04-08T17:26:15;102169.31;;;8.55;95.15
63090;BME280;49174;43.198;27.824;2023-04-08T17:28:41;102166.34;;;8.58;95.46
63090;BME280;49174;43.198;27.824;2023-04-08T17:31:08;102168.97;;;8.68;94.35
63090;BME280;49174;43.198;27.824;2023-04-08T17:33:34;102167.97;;;8.69;94.83
63090;BME280;49174;43.198;27.824;2023-04-08T17:35:59;102180.22;;;8.81;94.01
63090;BME280;49174;43.198;27.824;2023-04-08T17:38:25;102180.47;;;8.88;93.28
63090;BME280;49174;43.198;27.824;2023-04-08T17:40:51;102181.72;;;8.93;92.35
63090;BME280;49174;43.198;27.824;2023-04-08T17:43:17;102182.09;;;8.99;91.78
63090;BME280;49174;43.198;27.824;2023-04-08T17:45:42;102189.88;;;9.02;91.78
63090;BME280;49174;43.198;27.824;2023-04-08T17:48:08;102188.91;;;9.03;91.58
63090;BME280;49174;43.198;27.824;2023-04-08T17:50:35;102199.50;;;9.04;90.75
63090;BME280;49174;43.198;27.824;2023-04-08T17:53:00;102196.97;;;9.03;91.33
63090;BME280;49174;43.198;27.824;2023-04-08T17:55:27;102196.97;;;9.03;89.68
63090;BME280;49174;43.198;27.824;2023-04-08T17:57:53;102200.75;;;9.10;89.00
63090;BME280;49174;43.198;27.824;2023-04-08T18:00:18;102200.75;;;9.10;88.99
63090;BME280;49174;43.198;27.824;2023-04-08T18:02:44;102204.59;;;9.07;88.59
63090;BME280;49174;43.198;27.824;2023-04-08T18:05:11;102207.88;;;9.01;88.27
63090;BME280;49174;43.198;27.824;2023-04-08T18:07:36;102210.03;;;8.98;88.29
63090;BME280;49174;43.198;27.824;2023-04-08T18:10:02;102215.06;;;8.83;88.71
63090;BME280;49174;43.198;27.824;2023-04-08T18:12:28;102209.72;;;8.73;89.22
63090;BME280;49174;43.198;27.824;2023-04-08T18:14:56;102216.44;;;8.59;89.09
63090;BME280;49174;43.198;27.824;2023-04-08T18:17:22;102215.22;;;8.44;89.21
63090;BME280;49174;43.198;27.824;2023-04-08T18:19:47;102217.22;;;8.32;88.79
63090;BME280;49174;43.198;27.824;2023-04-08T18:22:13;102219.34;;;8.19;89.62
63090;BME280;49174;43.198;27.824;2023-04-08T18:24:39;102227.59;;;8.07;90.61
63090;BME280;49174;43.198;27.824;2023-04-08T18:27:05;102233.41;;;7.93;90.16
63090;BME280;49174;43.198;27.824;2023-04-08T18:29:30;102232.16;;;7.78;90.59
63090;BME280;49174;43.198;27.824;2023-04-08T18:31:56;102233.88;;;7.69;89.53
63090;BME280;49174;43.198;27.824;2023-04-08T18:34:21;102231.16;;;7.59;90.51
63090;BME280;49174;43.198;27.824;2023-04-08T18:36:47;102226.66;;;7.50;90.63
63090;BME280;49174;43.198;27.824;2023-04-08T18:39:13;102238.50;;;7.38;90.82
63090;BME280;49174;43.198;27.824;2023-04-08T18:41:39;102228.88;;;7.26;91.81
63090;BME280;49174;43.198;27.824;2023-04-08T18:44:04;102239.00;;;7.12;92.91
63090;BME280;49174;43.198;27.824;2023-04-08T18:46:30;102234.31;;;7.05;91.68
63090;BME280;49174;43.198;27.824;2023-04-08T18:48:55;102240.41;;;6.97;92.93
63090;BME280;49174;43.198;27.824;2023-04-08T18:51:21;102235.88;;;6.98;92.85
63090;BME280;49174;43.198;27.824;2023-04-08T18:53:47;102233.31;;;6.96;92.87
63090;BME280;49174;43.198;27.824;2023-04-08T18:56:18;102241.38;;;6.96;93.60
63090;BME280;49174;43.198;27.824;2023-04-08T18:58:44;102230.22;;;6.91;93.46
63090;BME280;49174;43.198;27.824;2023-04-08T19:01:12;102231.16;;;6.80;93.65
63090;BME280;49174;43.198;27.824;2023-04-08T19:03:37;102234.63;;;6.71;94.27
63090;BME280;49174;43.198;27.824;2023-04-08T19:06:07;102230.72;;;6.75;95.24
63090;BME280;49174;43.198;27.824;2023-04-08T19:08:32;102234.13;;;6.87;96.04
63090;BME280;49174;43.198;27.824;2023-04-08T19:10:58;102234.28;;;6.85;95.89
63090;BME280;49174;43.198;27.824;2023-04-08T19:13:23;102238.50;;;6.78;96.25
63090;BME280;49174;43.198;27.824;2023-04-08T19:15:49;102238.34;;;6.80;94.61
63090;BME280;49174;43.198;27.824;2023-04-08T19:18:15;102242.16;;;6.77;93.91
63090;BME280;49174;43.198;27.824;2023-04-08T19:20:41;102244.78;;;6.67;94.72
63090;BME280;49174;43.198;27.824;2023-04-08T19:23:06;102243.31;;;6.54;94.00
63090;BME280;49174;43.198;27.824;2023-04-08T19:25:32;102242.56;;;6.42;94.81
63090;BME280;49174;43.198;27.824;2023-04-08T19:27:58;102243.63;;;6.30;94.13